首页
METAR-TAF:

METAR-TAF

机场 :

山胡桃, 北卡罗来纳州, 美国

纬度: 35-44-32N, 经度: 081-22-56W, 海拔: 362米

当前天气观测

该预报发布于45分钟前的07:53 UTC
风速6节,风向东转东北
温度 4°C
湿度 75%
气压 1016 hPa
能見度: 16.1公里

METAR: KHKY 170753Z AUTO 06006KT 10SM 04/00 A2999 RMK AO2 SLP149 T00440000 $

时间: 03:38 (08:38 UTC)

预报

该预报发布于3小时和18分钟前的05:20 UTC
预报有效从17日的 06点(UTC)到 18日的 06点(UTC)
风速4节,风向
能見度: 10公里
阴天层高于1500英尺
从 17日的 1200点(UTC)
风速5节,风向
能見度: 10公里
阴天层高于3000英尺
附近有阵雨
从 17日的 1500点(UTC)
风速4节,风向
能見度: 10公里
阴天层高于1800英尺
附近有阵雨
几率 30%
从 17日的 15点(UTC)到 17日的 18点(UTC)
能見度: 6.4公里
阴天层高于800英尺
小雨, 毛毛雨
从 17日的 2000点(UTC)
风速3节,风向
能見度: 6.4公里
阴天层高于600英尺
小阵雨
从 17日的 2200点(UTC)
风速2节,风向多变
能見度: 3.2公里
阴天层高于500英尺
小阵雨, 轻雾

TAF: KHKY 170520Z 1706/1806 08004KT P6SM OVC015 FM171200 08005KT P6SM VCSH OVC030 FM171500 08004KT P6SM VCSH OVC018 PROB30 1715/1718 4SM -RADZ OVC008 FM172000 09003KT 4SM -SHRA OVC006 FM172200 VRB02KT 2SM -SHRA BR OVC005

超过4000个机场的气象观测和天气预报(METAR&TAF报告)。

可查询的气象台以黄色和红色小点在地图上表示。

将鼠标移到小点上方,可查看气象台名称。

然后点击查看天气观测和预报。

如需切换地图:点击带黑十字的绿色按钮放大地图;点击带横线的绿色按钮缩小地图;或者点击绿色箭头查看邻近地区的地图。


METAR-TAF: